sensor_id;sensor_type;location;lat;lon;timestamp;P1;durP1;ratioP1;P2;durP2;ratioP2
31128;SDS011;17777;48.770;8.944;2023-04-25T00:01:31;0.77;;;0.60;;
31128;SDS011;17777;48.770;8.944;2023-04-25T00:04:01;0.85;;;0.70;;
31128;SDS011;17777;48.770;8.944;2023-04-25T00:06:27;0.65;;;0.60;;
31128;SDS011;17777;48.770;8.944;2023-04-25T00:08:54;0.70;;;0.65;;
31128;SDS011;17777;48.770;8.944;2023-04-25T00:11:21;1.67;;;0.80;;
31128;SDS011;17777;48.770;8.944;2023-04-25T00:13:48;0.90;;;0.75;;
31128;SDS011;17777;48.770;8.944;2023-04-25T00:16:15;0.80;;;0.65;;
31128;SDS011;17777;48.770;8.944;2023-04-25T00:18:42;2.58;;;0.90;;
31128;SDS011;17777;48.770;8.944;2023-04-25T00:21:08;4.50;;;0.88;;
31128;SDS011;17777;48.770;8.944;2023-04-25T00:23:34;0.70;;;0.70;;
31128;SDS011;17777;48.770;8.944;2023-04-25T00:26:01;1.98;;;0.70;;
31128;SDS011;17777;48.770;8.944;2023-04-25T00:28:28;0.63;;;0.63;;
31128;SDS011;17777;48.770;8.944;2023-04-25T00:30:53;1.23;;;0.98;;
31128;SDS011;17777;48.770;8.944;2023-04-25T00:33:19;2.15;;;0.85;;
31128;SDS011;17777;48.770;8.944;2023-04-25T00:35:45;0.73;;;0.68;;
31128;SDS011;17777;48.770;8.944;2023-04-25T00:38:11;1.85;;;0.82;;
31128;SDS011;17777;48.770;8.944;2023-04-25T00:40:36;1.38;;;1.00;;
31128;SDS011;17777;48.770;8.944;2023-04-25T00:43:02;1.83;;;0.65;;
31128;SDS011;17777;48.770;8.944;2023-04-25T00:45:29;1.73;;;0.80;;
31128;SDS011;17777;48.770;8.944;2023-04-25T00:47:56;1.20;;;1.08;;
31128;SDS011;17777;48.770;8.944;2023-04-25T00:50:22;1.02;;;0.75;;
31128;SDS011;17777;48.770;8.944;2023-04-25T00:52:49;2.00;;;0.88;;
31128;SDS011;17777;48.770;8.944;2023-04-25T00:55:15;1.50;;;1.00;;
31128;SDS011;17777;48.770;8.944;2023-04-25T00:57:40;1.63;;;1.10;;
31128;SDS011;17777;48.770;8.944;2023-04-25T01:00:07;1.67;;;1.33;;
31128;SDS011;17777;48.770;8.944;2023-04-25T01:02:35;2.45;;;1.20;;
31128;SDS011;17777;48.770;8.944;2023-04-25T01:05:02;2.20;;;1.10;;
31128;SDS011;17777;48.770;8.944;2023-04-25T01:07:29;2.38;;;1.20;;
31128;SDS011;17777;48.770;8.944;2023-04-25T01:09:55;1.83;;;1.08;;
31128;SDS011;17777;48.770;8.944;2023-04-25T01:12:22;1.92;;;1.00;;
31128;SDS011;17777;48.770;8.944;2023-04-25T01:14:48;3.25;;;1.20;;
31128;SDS011;17777;48.770;8.944;2023-04-25T01:17:14;1.40;;;1.30;;
31128;SDS011;17777;48.770;8.944;2023-04-25T01:19:42;2.40;;;0.88;;
31128;SDS011;17777;48.770;8.944;2023-04-25T01:22:09;2.58;;;0.80;;
31128;SDS011;17777;48.770;8.944;2023-04-25T01:24:35;0.80;;;0.80;;
31128;SDS011;17777;48.770;8.944;2023-04-25T01:27:02;1.05;;;0.80;;
31128;SDS011;17777;48.770;8.944;2023-04-25T01:29:29;2.70;;;1.10;;
31128;SDS011;17777;48.770;8.944;2023-04-25T01:31:56;1.40;;;1.02;;
31128;SDS011;17777;48.770;8.944;2023-04-25T01:34:23;2.15;;;1.10;;
31128;SDS011;17777;48.770;8.944;2023-04-25T01:36:49;1.88;;;1.27;;
31128;SDS011;17777;48.770;8.944;2023-04-25T01:39:16;1.70;;;1.25;;
31128;SDS011;17777;48.770;8.944;2023-04-25T01:41:43;1.52;;;1.30;;
31128;SDS011;17777;48.770;8.944;2023-04-25T01:44:11;1.15;;;1.00;;
31128;SDS011;17777;48.770;8.944;2023-04-25T01:46:38;2.40;;;1.30;;
31128;SDS011;17777;48.770;8.944;2023-04-25T01:49:04;1.38;;;1.15;;
31128;SDS011;17777;48.770;8.944;2023-04-25T01:51:31;1.27;;;0.80;;
31128;SDS011;17777;48.770;8.944;2023-04-25T01:53:57;1.90;;;0.80;;
31128;SDS011;17777;48.770;8.944;2023-04-25T01:56:24;1.25;;;0.90;;
31128;SDS011;17777;48.770;8.944;2023-04-25T01:58:50;1.67;;;0.90;;
31128;SDS011;17777;48.770;8.944;2023-04-25T02:01:16;0.80;;;0.80;;
31128;SDS011;17777;48.770;8.944;2023-04-25T02:03:51;0.70;;;0.70;;
31128;SDS011;17777;48.770;8.944;2023-04-25T02:06:23;0.77;;;0.70;;
31128;SDS011;17777;48.770;8.944;2023-04-25T02:08:51;0.90;;;0.90;;
31128;SDS011;17777;48.770;8.944;2023-04-25T02:11:17;1.38;;;0.80;;
31128;SDS011;17777;48.770;8.944;2023-04-25T02:13:55;2.03;;;0.90;;
31128;SDS011;17777;48.770;8.944;2023-04-25T02:16:36;0.70;;;0.70;;
31128;SDS011;17777;48.770;8.944;2023-04-25T02:19:06;2.03;;;0.80;;
31128;SDS011;17777;48.770;8.944;2023-04-25T02:21:32;1.20;;;0.90;;
31128;SDS011;17777;48.770;8.944;2023-04-25T02:24:00;1.25;;;0.90;;
31128;SDS011;17777;48.770;8.944;2023-04-25T02:26:27;1.00;;;0.90;;
31128;SDS011;17777;48.770;8.944;2023-04-25T02:28:54;1.00;;;0.77;;
31128;SDS011;17777;48.770;8.944;2023-04-25T02:31:20;4.32;;;0.85;;
31128;SDS011;17777;48.770;8.944;2023-04-25T02:33:46;1.38;;;0.90;;
31128;SDS011;17777;48.770;8.944;2023-04-25T02:36:12;0.73;;;0.73;;
31128;SDS011;17777;48.770;8.944;2023-04-25T02:38:40;1.50;;;0.80;;
31128;SDS011;17777;48.770;8.944;2023-04-25T02:41:06;1.20;;;0.80;;
31128;SDS011;17777;48.770;8.944;2023-04-25T02:43:32;1.15;;;0.80;;
31128;SDS011;17777;48.770;8.944;2023-04-25T02:45:57;2.70;;;0.95;;
31128;SDS011;17777;48.770;8.944;2023-04-25T02:48:23;2.13;;;1.02;;
31128;SDS011;17777;48.770;8.944;2023-04-25T02:50:49;2.38;;;1.75;;
31128;SDS011;17777;48.770;8.944;2023-04-25T02:53:15;2.50;;;1.75;;
31128;SDS011;17777;48.770;8.944;2023-04-25T02:55:46;3.53;;;1.80;;
31128;SDS011;17777;48.770;8.944;2023-04-25T02:58:12;3.15;;;1.48;;
31128;SDS011;17777;48.770;8.944;2023-04-25T03:00:45;3.47;;;1.53;;
31128;SDS011;17777;48.770;8.944;2023-04-25T03:03:11;1.58;;;1.20;;
31128;SDS011;17777;48.770;8.944;2023-04-25T03:05:36;2.85;;;1.10;;
31128;SDS011;17777;48.770;8.944;2023-04-25T03:08:02;1.95;;;1.10;;
31128;SDS011;17777;48.770;8.944;2023-04-25T03:10:30;1.40;;;0.90;;
31128;SDS011;17777;48.770;8.944;2023-04-25T03:13:01;2.75;;;1.13;;
31128;SDS011;17777;48.770;8.944;2023-04-25T03:15:26;2.15;;;0.90;;
31128;SDS011;17777;48.770;8.944;2023-04-25T03:17:52;0.80;;;0.80;;
31128;SDS011;17777;48.770;8.944;2023-04-25T03:20:18;1.10;;;1.00;;
31128;SDS011;17777;48.770;8.944;2023-04-25T03:22:44;1.50;;;0.93;;
31128;SDS011;17777;48.770;8.944;2023-04-25T03:25:10;1.02;;;0.93;;
31128;SDS011;17777;48.770;8.944;2023-04-25T03:27:35;1.20;;;1.10;;
31128;SDS011;17777;48.770;8.944;2023-04-25T03:30:01;1.00;;;0.93;;
31128;SDS011;17777;48.770;8.944;2023-04-25T03:32:28;0.85;;;0.82;;
31128;SDS011;17777;48.770;8.944;2023-04-25T03:34:55;1.27;;;0.77;;
31128;SDS011;17777;48.770;8.944;2023-04-25T03:37:22;1.05;;;0.95;;
31128;SDS011;17777;48.770;8.944;2023-04-25T03:39:48;1.88;;;1.02;;
31128;SDS011;17777;48.770;8.944;2023-04-25T03:42:14;1.65;;;1.00;;
31128;SDS011;17777;48.770;8.944;2023-04-25T03:44:43;1.10;;;1.00;;
31128;SDS011;17777;48.770;8.944;2023-04-25T03:47:08;0.93;;;0.93;;
31128;SDS011;17777;48.770;8.944;2023-04-25T03:49:34;1.52;;;1.23;;
31128;SDS011;17777;48.770;8.944;2023-04-25T03:52:02;2.90;;;1.15;;
31128;SDS011;17777;48.770;8.944;2023-04-25T03:54:33;1.38;;;1.05;;
31128;SDS011;17777;48.770;8.944;2023-04-25T03:57:12;2.75;;;1.00;;
31128;SDS011;17777;48.770;8.944;2023-04-25T03:59:38;3.42;;;1.10;;
31128;SDS011;17777;48.770;8.944;2023-04-25T04:02:06;1.88;;;1.20;;
31128;SDS011;17777;48.770;8.944;2023-04-25T04:04:34;2.60;;;1.23;;
31128;SDS011;17777;48.770;8.944;2023-04-25T04:07:00;1.38;;;1.20;;
31128;SDS011;17777;48.770;8.944;2023-04-25T04:09:30;2.03;;;1.50;;
31128;SDS011;17777;48.770;8.944;2023-04-25T04:11:57;1.30;;;1.00;;
31128;SDS011;17777;48.770;8.944;2023-04-25T04:14:23;1.52;;;0.88;;
31128;SDS011;17777;48.770;8.944;2023-04-25T04:16:50;1.15;;;0.98;;
31128;SDS011;17777;48.770;8.944;2023-04-25T04:19:17;2.78;;;1.05;;
31128;SDS011;17777;48.770;8.944;2023-04-25T04:21:52;1.65;;;1.42;;
31128;SDS011;17777;48.770;8.944;2023-04-25T04:24:18;2.22;;;1.00;;
31128;SDS011;17777;48.770;8.944;2023-04-25T04:26:52;1.40;;;1.30;;
31128;SDS011;17777;48.770;8.944;2023-04-25T04:29:45;1.30;;;1.20;;
31128;SDS011;17777;48.770;8.944;2023-04-25T04:32:32;1.42;;;1.02;;
31128;SDS011;17777;48.770;8.944;2023-04-25T04:34:59;1.77;;;1.30;;
31128;SDS011;17777;48.770;8.944;2023-04-25T04:37:25;1.40;;;0.88;;
31128;SDS011;17777;48.770;8.944;2023-04-25T04:39:51;1.85;;;1.35;;
31128;SDS011;17777;48.770;8.944;2023-04-25T04:42:23;1.67;;;1.27;;
31128;SDS011;17777;48.770;8.944;2023-04-25T04:44:59;1.48;;;1.05;;
31128;SDS011;17777;48.770;8.944;2023-04-25T04:47:45;1.55;;;0.90;;
31128;SDS011;17777;48.770;8.944;2023-04-25T04:50:31;0.90;;;0.88;;
31128;SDS011;17777;48.770;8.944;2023-04-25T04:53:16;0.93;;;0.85;;
31128;SDS011;17777;48.770;8.944;2023-04-25T04:55:57;1.17;;;1.05;;
31128;SDS011;17777;48.770;8.944;2023-04-25T04:58:46;1.17;;;1.02;;
31128;SDS011;17777;48.770;8.944;2023-04-25T05:01:32;1.13;;;1.02;;
31128;SDS011;17777;48.770;8.944;2023-04-25T05:04:22;3.25;;;1.30;;
31128;SDS011;17777;48.770;8.944;2023-04-25T05:07:03;3.05;;;1.58;;
31128;SDS011;17777;48.770;8.944;2023-04-25T05:09:48;1.85;;;1.17;;
31128;SDS011;17777;48.770;8.944;2023-04-25T05:12:32;1.63;;;1.48;;
31128;SDS011;17777;48.770;8.944;2023-04-25T05:15:15;1.33;;;1.15;;
31128;SDS011;17777;48.770;8.944;2023-04-25T05:17:50;1.00;;;1.00;;
31128;SDS011;17777;48.770;8.944;2023-04-25T05:20:33;1.65;;;1.30;;
31128;SDS011;17777;48.770;8.944;2023-04-25T05:23:34;1.55;;;1.30;;
31128;SDS011;17777;48.770;8.944;2023-04-25T05:26:08;1.55;;;1.10;;
31128;SDS011;17777;48.770;8.944;2023-04-25T05:28:52;1.20;;;0.80;;
31128;SDS011;17777;48.770;8.944;2023-04-25T05:31:36;1.25;;;1.10;;
31128;SDS011;17777;48.770;8.944;2023-04-25T05:34:08;1.20;;;1.10;;
31128;SDS011;17777;48.770;8.944;2023-04-25T05:39:07;1.00;;;0.90;;
31128;SDS011;17777;48.770;8.944;2023-04-25T05:41:52;1.63;;;1.38;;
31128;SDS011;17777;48.770;8.944;2023-04-25T05:44:44;1.60;;;1.38;;
31128;SDS011;17777;48.770;8.944;2023-04-25T05:47:20;1.60;;;1.50;;
31128;SDS011;17777;48.770;8.944;2023-04-25T05:50:24;1.33;;;1.23;;
31128;SDS011;17777;48.770;8.944;2023-04-25T05:53:01;1.73;;;1.58;;
31128;SDS011;17777;48.770;8.944;2023-04-25T05:55:34;1.50;;;1.40;;
31128;SDS011;17777;48.770;8.944;2023-04-25T05:58:09;2.42;;;1.48;;
31128;SDS011;17777;48.770;8.944;2023-04-25T06:00:35;2.65;;;1.90;;
31128;SDS011;17777;48.770;8.944;2023-04-25T06:03:01;2.53;;;2.00;;
31128;SDS011;17777;48.770;8.944;2023-04-25T06:05:27;2.47;;;1.73;;
31128;SDS011;17777;48.770;8.944;2023-04-25T06:07:53;1.98;;;1.73;;
31128;SDS011;17777;48.770;8.944;2023-04-25T06:10:19;1.50;;;1.40;;
31128;SDS011;17777;48.770;8.944;2023-04-25T06:12:45;1.40;;;1.30;;
31128;SDS011;17777;48.770;8.944;2023-04-25T06:15:13;1.55;;;1.40;;
31128;SDS011;17777;48.770;8.944;2023-04-25T06:17:40;1.50;;;1.15;;
31128;SDS011;17777;48.770;8.944;2023-04-25T06:20:06;2.45;;;1.33;;
31128;SDS011;17777;48.770;8.944;2023-04-25T06:22:33;2.55;;;1.70;;
31128;SDS011;17777;48.770;8.944;2023-04-25T06:24:59;2.45;;;1.70;;
31128;SDS011;17777;48.770;8.944;2023-04-25T06:27:26;2.15;;;1.55;;
31128;SDS011;17777;48.770;8.944;2023-04-25T06:29:52;2.00;;;1.80;;
31128;SDS011;17777;48.770;8.944;2023-04-25T06:32:17;1.65;;;1.55;;
31128;SDS011;17777;48.770;8.944;2023-04-25T06:34:43;3.05;;;1.83;;
31128;SDS011;17777;48.770;8.944;2023-04-25T06:37:10;2.38;;;1.58;;
31128;SDS011;17777;48.770;8.944;2023-04-25T06:39:36;2.40;;;1.60;;
31128;SDS011;17777;48.770;8.944;2023-04-25T06:42:01;1.67;;;1.40;;
31128;SDS011;17777;48.770;8.944;2023-04-25T06:44:46;1.30;;;1.20;;
31128;SDS011;17777;48.770;8.944;2023-04-25T06:47:12;2.08;;;1.00;;
31128;SDS011;17777;48.770;8.944;2023-04-25T06:49:41;2.33;;;1.45;;
31128;SDS011;17777;48.770;8.944;2023-04-25T06:52:08;1.63;;;1.15;;
31128;SDS011;17777;48.770;8.944;2023-04-25T06:54:35;1.63;;;1.08;;
31128;SDS011;17777;48.770;8.944;2023-04-25T06:57:24;1.80;;;1.30;;
31128;SDS011;17777;48.770;8.944;2023-04-25T06:59:51;1.38;;;1.20;;
31128;SDS011;17777;48.770;8.944;2023-04-25T07:02:17;4.38;;;1.30;;
31128;SDS011;17777;48.770;8.944;2023-04-25T07:04:44;1.40;;;1.30;;
31128;SDS011;17777;48.770;8.944;2023-04-25T07:07:11;1.80;;;1.60;;
31128;SDS011;17777;48.770;8.944;2023-04-25T07:09:48;1.65;;;1.55;;
31128;SDS011;17777;48.770;8.944;2023-04-25T07:12:14;3.35;;;2.42;;
31128;SDS011;17777;48.770;8.944;2023-04-25T07:14:40;3.83;;;1.88;;
31128;SDS011;17777;48.770;8.944;2023-04-25T07:17:07;1.95;;;1.55;;
31128;SDS011;17777;48.770;8.944;2023-04-25T07:19:34;1.58;;;1.40;;
31128;SDS011;17777;48.770;8.944;2023-04-25T07:22:01;1.20;;;1.10;;
31128;SDS011;17777;48.770;8.944;2023-04-25T07:24:27;1.40;;;1.30;;
31128;SDS011;17777;48.770;8.944;2023-04-25T07:26:54;2.90;;;1.17;;
31128;SDS011;17777;48.770;8.944;2023-04-25T07:29:34;1.48;;;1.17;;
31128;SDS011;17777;48.770;8.944;2023-04-25T07:32:02;1.88;;;1.35;;
31128;SDS011;17777;48.770;8.944;2023-04-25T07:34:28;1.42;;;1.23;;
31128;SDS011;17777;48.770;8.944;2023-04-25T07:36:55;1.75;;;1.58;;
31128;SDS011;17777;48.770;8.944;2023-04-25T07:39:23;2.17;;;1.70;;
31128;SDS011;17777;48.770;8.944;2023-04-25T07:41:49;1.30;;;1.20;;
31128;SDS011;17777;48.770;8.944;2023-04-25T07:44:21;1.42;;;1.33;;
31128;SDS011;17777;48.770;8.944;2023-04-25T07:46:47;2.05;;;1.73;;
31128;SDS011;17777;48.770;8.944;2023-04-25T07:49:13;1.90;;;1.58;;
31128;SDS011;17777;48.770;8.944;2023-04-25T07:51:42;1.80;;;1.42;;
31128;SDS011;17777;48.770;8.944;2023-04-25T07:54:14;1.98;;;1.48;;
31128;SDS011;17777;48.770;8.944;2023-04-25T07:56:45;2.45;;;1.40;;
31128;SDS011;17777;48.770;8.944;2023-04-25T07:59:12;1.98;;;1.70;;
31128;SDS011;17777;48.770;8.944;2023-04-25T08:01:39;1.92;;;1.45;;
31128;SDS011;17777;48.770;8.944;2023-04-25T08:04:06;1.70;;;1.55;;
31128;SDS011;17777;48.770;8.944;2023-04-25T08:06:51;2.10;;;1.73;;
31128;SDS011;17777;48.770;8.944;2023-04-25T08:09:22;1.77;;;1.42;;
31128;SDS011;17777;48.770;8.944;2023-04-25T08:11:48;1.88;;;1.50;;
31128;SDS011;17777;48.770;8.944;2023-04-25T08:14:16;1.63;;;1.35;;
31128;SDS011;17777;48.770;8.944;2023-04-25T08:16:43;2.15;;;1.33;;
31128;SDS011;17777;48.770;8.944;2023-04-25T08:19:09;1.50;;;1.30;;
31128;SDS011;17777;48.770;8.944;2023-04-25T08:21:36;1.77;;;1.50;;
31128;SDS011;17777;48.770;8.944;2023-04-25T08:24:05;2.75;;;1.42;;
31128;SDS011;17777;48.770;8.944;2023-04-25T08:26:35;1.60;;;1.33;;
31128;SDS011;17777;48.770;8.944;2023-04-25T08:29:02;1.45;;;1.33;;
31128;SDS011;17777;48.770;8.944;2023-04-25T08:31:28;1.92;;;1.27;;
31128;SDS011;17777;48.770;8.944;2023-04-25T08:33:58;1.83;;;1.40;;
31128;SDS011;17777;48.770;8.944;2023-04-25T08:36:37;1.30;;;1.20;;
31128;SDS011;17777;48.770;8.944;2023-04-25T08:39:04;1.45;;;1.35;;
31128;SDS011;17777;48.770;8.944;2023-04-25T08:41:36;1.85;;;1.55;;
31128;SDS011;17777;48.770;8.944;2023-04-25T08:44:04;1.95;;;1.70;;
31128;SDS011;17777;48.770;8.944;2023-04-25T08:46:31;3.30;;;1.85;;
31128;SDS011;17777;48.770;8.944;2023-04-25T08:49:14;2.30;;;1.60;;
31128;SDS011;17777;48.770;8.944;2023-04-25T08:51:45;2.22;;;1.70;;
31128;SDS011;17777;48.770;8.944;2023-04-25T08:54:14;2.22;;;1.85;;
31128;SDS011;17777;48.770;8.944;2023-04-25T08:56:41;4.13;;;2.03;;
31128;SDS011;17777;48.770;8.944;2023-04-25T08:59:11;3.22;;;2.05;;
31128;SDS011;17777;48.770;8.944;2023-04-25T09:01:38;2.55;;;1.77;;
31128;SDS011;17777;48.770;8.944;2023-04-25T09:04:04;2.75;;;1.80;;
31128;SDS011;17777;48.770;8.944;2023-04-25T09:06:32;1.92;;;1.83;;
31128;SDS011;17777;48.770;8.944;2023-04-25T09:09:02;1.83;;;1.45;;
31128;SDS011;17777;48.770;8.944;2023-04-25T09:11:30;2.40;;;1.40;;
31128;SDS011;17777;48.770;8.944;2023-04-25T09:19:35;1.00;;;1.00;;
31128;SDS011;17777;48.770;8.944;2023-04-25T09:22:06;1.02;;;0.93;;
31128;SDS011;17777;48.770;8.944;2023-04-25T09:27:11;1.35;;;0.80;;
31128;SDS011;17777;48.770;8.944;2023-04-25T09:29:39;0.70;;;0.63;;
31128;SDS011;17777;48.770;8.944;2023-04-25T09:34:39;0.43;;;0.43;;
31128;SDS011;17777;48.770;8.944;2023-04-25T09:37:08;0.40;;;0.40;;
31128;SDS011;17777;48.770;8.944;2023-04-25T09:39:56;0.30;;;0.30;;
31128;SDS011;17777;48.770;8.944;2023-04-25T09:42:32;0.55;;;0.47;;
31128;SDS011;17777;48.770;8.944;2023-04-25T09:45:00;0.50;;;0.50;;
31128;SDS011;17777;48.770;8.944;2023-04-25T09:47:36;0.47;;;0.40;;
31128;SDS011;17777;48.770;8.944;2023-04-25T09:50:05;0.30;;;0.30;;
31128;SDS011;17777;48.770;8.944;2023-04-25T09:52:42;0.30;;;0.30;;
31128;SDS011;17777;48.770;8.944;2023-04-25T09:55:16;0.40;;;0.40;;
31128;SDS011;17777;48.770;8.944;2023-04-25T09:57:44;0.45;;;0.45;;
31128;SDS011;17777;48.770;8.944;2023-04-25T10:00:13;0.50;;;0.50;;
31128;SDS011;17777;48.770;8.944;2023-04-25T10:02:40;0.28;;;0.28;;
31128;SDS011;17777;48.770;8.944;2023-04-25T10:05:27;0.40;;;0.30;;
31128;SDS011;17777;48.770;8.944;2023-04-25T10:07:57;0.63;;;0.30;;
31128;SDS011;17777;48.770;8.944;2023-04-25T10:10:25;0.40;;;0.40;;
31128;SDS011;17777;48.770;8.944;2023-04-25T10:12:53;0.52;;;0.50;;
31128;SDS011;17777;48.770;8.944;2023-04-25T10:15:19;0.45;;;0.40;;
31128;SDS011;17777;48.770;8.944;2023-04-25T10:17:47;1.02;;;0.60;;
31128;SDS011;17777;48.770;8.944;2023-04-25T10:20:14;0.60;;;0.60;;
31128;SDS011;17777;48.770;8.944;2023-04-25T10:22:42;0.40;;;0.40;;
31128;SDS011;17777;48.770;8.944;2023-04-25T10:25:10;0.43;;;0.43;;
31128;SDS011;17777;48.770;8.944;2023-04-25T10:27:38;0.80;;;0.38;;
31128;SDS011;17777;48.770;8.944;2023-04-25T10:32:37;0.35;;;0.35;;
31128;SDS011;17777;48.770;8.944;2023-04-25T10:35:16;0.40;;;0.40;;
31128;SDS011;17777;48.770;8.944;2023-04-25T10:40:33;0.50;;;0.50;;
31128;SDS011;17777;48.770;8.944;2023-04-25T10:43:33;0.60;;;0.60;;
31128;SDS011;17777;48.770;8.944;2023-04-25T10:46:22;0.50;;;0.50;;
31128;SDS011;17777;48.770;8.944;2023-04-25T10:48:58;0.50;;;0.40;;
31128;SDS011;17777;48.770;8.944;2023-04-25T10:54:03;1.27;;;1.05;;
31128;SDS011;17777;48.770;8.944;2023-04-25T10:56:33;1.88;;;1.10;;
31128;SDS011;17777;48.770;8.944;2023-04-25T10:59:12;1.15;;;1.05;;
31128;SDS011;17777;48.770;8.944;2023-04-25T11:01:44;1.38;;;1.13;;
31128;SDS011;17777;48.770;8.944;2023-04-25T11:04:29;1.52;;;0.98;;
31128;SDS011;17777;48.770;8.944;2023-04-25T11:07:07;1.05;;;0.90;;
31128;SDS011;17777;48.770;8.944;2023-04-25T11:09:45;0.73;;;0.73;;
31128;SDS011;17777;48.770;8.944;2023-04-25T11:12:11;1.20;;;0.82;;
31128;SDS011;17777;48.770;8.944;2023-04-25T11:14:38;1.00;;;1.00;;
31128;SDS011;17777;48.770;8.944;2023-04-25T11:17:04;0.90;;;0.90;;
31128;SDS011;17777;48.770;8.944;2023-04-25T11:19:31;0.77;;;0.77;;
31128;SDS011;17777;48.770;8.944;2023-04-25T11:22:00;0.70;;;0.70;;
31128;SDS011;17777;48.770;8.944;2023-04-25T11:24:31;1.00;;;0.90;;
31128;SDS011;17777;48.770;8.944;2023-04-25T11:26:59;0.60;;;0.60;;
31128;SDS011;17777;48.770;8.944;2023-04-25T11:29:31;0.70;;;0.70;;
31128;SDS011;17777;48.770;8.944;2023-04-25T11:31:58;0.80;;;0.80;;
31128;SDS011;17777;48.770;8.944;2023-04-25T11:34:29;1.05;;;0.73;;
31128;SDS011;17777;48.770;8.944;2023-04-25T11:36:57;0.70;;;0.70;;
31128;SDS011;17777;48.770;8.944;2023-04-25T11:39:25;0.80;;;0.80;;
31128;SDS011;17777;48.770;8.944;2023-04-25T11:41:52;0.90;;;0.82;;
31128;SDS011;17777;48.770;8.944;2023-04-25T11:44:20;0.77;;;0.77;;
31128;SDS011;17777;48.770;8.944;2023-04-25T11:46:46;0.65;;;0.65;;
31128;SDS011;17777;48.770;8.944;2023-04-25T11:49:13;0.60;;;0.60;;
31128;SDS011;17777;48.770;8.944;2023-04-25T11:51:40;0.95;;;0.95;;
31128;SDS011;17777;48.770;8.944;2023-04-25T11:54:08;1.58;;;0.93;;
31128;SDS011;17777;48.770;8.944;2023-04-25T11:56:35;1.15;;;1.00;;
31128;SDS011;17777;48.770;8.944;2023-04-25T11:59:02;1.55;;;1.13;;
31128;SDS011;17777;48.770;8.944;2023-04-25T12:01:30;1.40;;;1.30;;
31128;SDS011;17777;48.770;8.944;2023-04-25T12:03:58;3.00;;;1.40;;
31128;SDS011;17777;48.770;8.944;2023-04-25T12:06:38;2.08;;;1.75;;
31128;SDS011;17777;48.770;8.944;2023-04-25T12:09:07;4.07;;;1.80;;
31128;SDS011;17777;48.770;8.944;2023-04-25T12:11:44;2.08;;;1.73;;
31128;SDS011;17777;48.770;8.944;2023-04-25T12:14:12;2.65;;;2.30;;
31128;SDS011;17777;48.770;8.944;2023-04-25T12:16:54;2.28;;;2.00;;
31128;SDS011;17777;48.770;8.944;2023-04-25T12:19:24;2.50;;;2.05;;
31128;SDS011;17777;48.770;8.944;2023-04-25T12:21:51;4.38;;;2.75;;
31128;SDS011;17777;48.770;8.944;2023-04-25T12:26:58;6.88;;;2.75;;
31128;SDS011;17777;48.770;8.944;2023-04-25T12:29:33;3.40;;;2.47;;
31128;SDS011;17777;48.770;8.944;2023-04-25T12:32:00;3.33;;;2.50;;
31128;SDS011;17777;48.770;8.944;2023-04-25T12:34:29;2.40;;;2.20;;
31128;SDS011;17777;48.770;8.944;2023-04-25T12:36:56;2.92;;;2.35;;
31128;SDS011;17777;48.770;8.944;2023-04-25T12:39:23;2.50;;;2.30;;
31128;SDS011;17777;48.770;8.944;2023-04-25T12:41:50;2.20;;;2.00;;
31128;SDS011;17777;48.770;8.944;2023-04-25T12:44:20;2.00;;;1.80;;
31128;SDS011;17777;48.770;8.944;2023-04-25T12:46:46;3.38;;;2.03;;
31128;SDS011;17777;48.770;8.944;2023-04-25T12:49:13;1.90;;;1.70;;
31128;SDS011;17777;48.770;8.944;2023-04-25T12:51:39;2.28;;;1.65;;
31128;SDS011;17777;48.770;8.944;2023-04-25T12:54:06;3.65;;;2.30;;
31128;SDS011;17777;48.770;8.944;2023-04-25T12:56:33;3.28;;;2.42;;
31128;SDS011;17777;48.770;8.944;2023-04-25T12:59:00;2.97;;;2.20;;
31128;SDS011;17777;48.770;8.944;2023-04-25T13:01:27;2.35;;;2.08;;
31128;SDS011;17777;48.770;8.944;2023-04-25T13:03:54;2.38;;;2.13;;
31128;SDS011;17777;48.770;8.944;2023-04-25T13:06:21;3.92;;;2.53;;
31128;SDS011;17777;48.770;8.944;2023-04-25T13:08:47;2.95;;;2.13;;
31128;SDS011;17777;48.770;8.944;2023-04-25T13:11:13;3.05;;;2.30;;
31128;SDS011;17777;48.770;8.944;2023-04-25T13:13:42;4.53;;;2.25;;
31128;SDS011;17777;48.770;8.944;2023-04-25T13:16:09;2.67;;;2.05;;
31128;SDS011;17777;48.770;8.944;2023-04-25T13:18:35;3.47;;;2.33;;
31128;SDS011;17777;48.770;8.944;2023-04-25T13:21:01;3.17;;;2.15;;
31128;SDS011;17777;48.770;8.944;2023-04-25T13:23:28;3.30;;;2.40;;
31128;SDS011;17777;48.770;8.944;2023-04-25T13:25:55;4.25;;;2.33;;
31128;SDS011;17777;48.770;8.944;2023-04-25T13:28:25;2.60;;;2.40;;
31128;SDS011;17777;48.770;8.944;2023-04-25T13:30:51;2.78;;;2.42;;
31128;SDS011;17777;48.770;8.944;2023-04-25T13:33:18;2.80;;;2.33;;
31128;SDS011;17777;48.770;8.944;2023-04-25T13:35:45;3.88;;;2.72;;
31128;SDS011;17777;48.770;8.944;2023-04-25T13:38:19;2.58;;;2.38;;
31128;SDS011;17777;48.770;8.944;2023-04-25T13:40:46;4.20;;;2.35;;
31128;SDS011;17777;48.770;8.944;2023-04-25T13:43:12;3.38;;;2.70;;
31128;SDS011;17777;48.770;8.944;2023-04-25T13:45:38;2.25;;;2.05;;
31128;SDS011;17777;48.770;8.944;2023-04-25T13:48:04;2.95;;;2.22;;
31128;SDS011;17777;48.770;8.944;2023-04-25T13:50:30;2.95;;;2.50;;
31128;SDS011;17777;48.770;8.944;2023-04-25T13:52:56;2.95;;;2.10;;
31128;SDS011;17777;48.770;8.944;2023-04-25T13:55:22;2.60;;;2.40;;
31128;SDS011;17777;48.770;8.944;2023-04-25T13:57:48;4.35;;;2.42;;
31128;SDS011;17777;48.770;8.944;2023-04-25T14:00:14;2.22;;;1.83;;
31128;SDS011;17777;48.770;8.944;2023-04-25T14:02:41;2.13;;;1.92;;
31128;SDS011;17777;48.770;8.944;2023-04-25T14:05:06;3.88;;;2.25;;
31128;SDS011;17777;48.770;8.944;2023-04-25T14:07:33;2.30;;;1.98;;
31128;SDS011;17777;48.770;8.944;2023-04-25T14:10:00;2.50;;;1.80;;
31128;SDS011;17777;48.770;8.944;2023-04-25T14:12:26;3.00;;;2.08;;
31128;SDS011;17777;48.770;8.944;2023-04-25T14:14:52;3.97;;;2.33;;
31128;SDS011;17777;48.770;8.944;2023-04-25T14:17:21;2.90;;;2.10;;
31128;SDS011;17777;48.770;8.944;2023-04-25T14:19:46;1.90;;;1.70;;
31128;SDS011;17777;48.770;8.944;2023-04-25T14:22:14;2.20;;;1.90;;
31128;SDS011;17777;48.770;8.944;2023-04-25T14:24:41;3.20;;;1.67;;
31128;SDS011;17777;48.770;8.944;2023-04-25T14:27:07;3.03;;;2.20;;
31128;SDS011;17777;48.770;8.944;2023-04-25T14:29:33;2.42;;;1.67;;
31128;SDS011;17777;48.770;8.944;2023-04-25T14:31:59;3.53;;;1.80;;
31128;SDS011;17777;48.770;8.944;2023-04-25T14:34:25;2.63;;;2.00;;
31128;SDS011;17777;48.770;8.944;2023-04-25T14:36:51;2.40;;;1.63;;
31128;SDS011;17777;48.770;8.944;2023-04-25T14:39:17;1.77;;;1.67;;
31128;SDS011;17777;48.770;8.944;2023-04-25T14:41:43;2.00;;;1.80;;
31128;SDS011;17777;48.770;8.944;2023-04-25T14:44:10;2.35;;;1.92;;
31128;SDS011;17777;48.770;8.944;2023-04-25T14:46:36;2.60;;;2.22;;
31128;SDS011;17777;48.770;8.944;2023-04-25T14:49:02;1.83;;;1.48;;
31128;SDS011;17777;48.770;8.944;2023-04-25T14:51:28;2.35;;;1.60;;
31128;SDS011;17777;48.770;8.944;2023-04-25T14:53:56;2.72;;;1.80;;
31128;SDS011;17777;48.770;8.944;2023-04-25T14:56:22;1.75;;;1.15;;
31128;SDS011;17777;48.770;8.944;2023-04-25T14:58:48;1.65;;;1.55;;
31128;SDS011;17777;48.770;8.944;2023-04-25T15:01:14;1.65;;;1.20;;
31128;SDS011;17777;48.770;8.944;2023-04-25T15:03:40;1.40;;;1.20;;
31128;SDS011;17777;48.770;8.944;2023-04-25T15:06:06;1.50;;;1.40;;
31128;SDS011;17777;48.770;8.944;2023-04-25T15:08:32;1.30;;;1.20;;
31128;SDS011;17777;48.770;8.944;2023-04-25T15:10:58;1.48;;;1.33;;
31128;SDS011;17777;48.770;8.944;2023-04-25T15:13:24;1.95;;;1.48;;
31128;SDS011;17777;48.770;8.944;2023-04-25T15:15:51;1.48;;;1.38;;
31128;SDS011;17777;48.770;8.944;2023-04-25T15:18:20;1.30;;;1.20;;
31128;SDS011;17777;48.770;8.944;2023-04-25T15:20:47;1.63;;;1.30;;
31128;SDS011;17777;48.770;8.944;2023-04-25T15:23:13;1.50;;;1.40;;
31128;SDS011;17777;48.770;8.944;2023-04-25T15:25:39;1.65;;;1.15;;